Tatoosh Island, Washington
Current Conditions -  °F | °C
As of 8:30 AM on Tuesday 21 Oct 2014 (Local Time) from KUIL Reporting Station
Haze Haze  
Wind Chill: 53°   Ceiling: 3100
Heat Index: 53°   Visibility: 5mi
Dew Point: 53°   Wind: 3mph
Humidity: 100%   Direction: 140°SE
Pressure: 29.8"   Gusts: NA
Location:  48.3685°N, 124.623°W
Report Text: KUIL 211530Z AUTO 14003KT 5SM BR SCT024 BKN031 BKN036 12/12 A2980 RMK AO2 T01170117
Loading
Personal Weather Stations






























Interactive Weather Map
Tropical Storm Tracking
New forecast layout! Learn more

10-Day Weather Forecast

Advertisements
Track Severe Weather on mobile